Clough, South Dakota
Current Conditions -  °F | °C
As of 11:58 PM on Sunday 23 Nov 2014 (Local Time) from KRCA Reporting Station
Clear Clear  
Wind Chill: 20°   Ceiling: Unl
Heat Index: 32°   Visibility: 10mi
Dew Point: 20°   Wind: 18mph
Humidity: 62%   Direction: 350°N
Pressure: 29.71"   Gusts: 28mph
Location:  44.4145°N, 103.17°W
Report Text: KRCA 240658Z AUTO 35016G24KT 10SM CLR 00/M07 A2971 RMK AO2 PK WND 35029/0559 SLP083 T10001066 400581000 $
Loading
Personal Weather Stations






























Interactive Weather Map New forecast layout! Learn more

10-Day Weather Forecast

Advertisements
Track Severe Weather on mobile